Time;durP1;ratioP1;P1;durP2;ratioP2;P2;SDS_P1;SDS_P2;PMS_P1;PMS_P2;Temp;Humidity;BMP_temperature;BMP_pressure;BME280_temperature;BME280_humidity;BME280_pressure;Samples;Min_cycle;Max_cycle;Signal;HPM_P1;HPM_P2
2023/04/28 00:00:52;;;;;;;5.88;3.30;;;;;;;12.40;30.84;100925.28;5033680;28;20500;-72
2023/04/28 00:03:20;;;;;;;5.05;3.60;;;;;;;12.40;31.24;100928.03;5035312;28;20558;-72
2023/04/28 00:05:50;;;;;;;6.43;3.80;;;;;;;12.41;31.63;100913.31;5055540;28;20119;-71
2023/04/28 00:08:20;;;;;;;6.03;3.90;;;;;;;12.39;31.62;100918.06;5039148;28;20056;-71
2023/04/28 00:10:48;;;;;;;6.22;3.90;;;;;;;12.38;31.94;100912.72;5035754;28;20037;-71
2023/04/28 00:13:16;;;;;;;7.40;4.30;;;;;;;12.37;31.86;100914.63;5034037;28;20496;-71
2023/04/28 00:15:43;;;;;;;7.65;4.28;;;;;;;12.36;31.67;100903.78;5034682;28;20499;-70
2023/04/28 00:18:11;;;;;;;9.00;4.20;;;;;;;12.35;32.15;100893.81;5036854;28;20055;-71
2023/04/28 00:20:39;;;;;;;6.15;4.25;;;;;;;12.34;32.48;100886.59;5034563;28;21173;-71
2023/04/28 00:23:08;;;;;;;7.72;4.03;;;;;;;12.33;32.78;100891.22;5037843;28;20132;-70
2023/04/28 00:25:36;;;;;;;7.65;4.30;;;;;;;12.30;32.78;100894.22;5035430;28;20041;-70
2023/04/28 00:28:04;;;;;;;7.05;4.45;;;;;;;12.30;32.52;100882.38;5038690;28;20045;-71
2023/04/28 00:30:32;;;;;;;8.98;5.38;;;;;;;12.29;32.97;100881.56;5035519;28;20061;-71
2023/04/28 00:33:00;;;;;;;7.72;5.00;;;;;;;12.27;33.43;100877.22;5031396;28;20132;-71
2023/04/28 00:35:28;;;;;;;7.93;4.85;;;;;;;12.26;33.05;100884.56;5033749;28;20045;-71
2023/04/28 00:37:55;;;;;;;7.82;4.53;;;;;;;12.25;33.11;100873.75;5035782;28;20059;-71
2023/04/28 00:40:33;;;;;;;7.45;5.07;;;;;;;12.27;34.98;100874.47;5052128;28;20160;-71
2023/04/28 00:43:00;;;;;;;8.45;4.35;;;;;;;12.22;33.89;100865.78;5039763;28;20045;-71
2023/04/28 00:45:28;;;;;;;5.70;4.20;;;;;;;12.22;33.72;100882.25;5037322;28;20063;-71
2023/04/28 00:47:57;;;;;;;6.43;4.05;;;;;;;12.23;34.10;100882.09;5031020;28;20045;-71
2023/04/28 00:50:25;;;;;;;6.85;3.90;;;;;;;12.23;34.37;100864.78;5041071;28;20424;-71
2023/04/28 00:52:53;;;;;;;7.28;4.18;;;;;;;12.22;34.68;100874.00;5033559;28;20041;-70
2023/04/28 00:55:22;;;;;;;6.13;3.65;;;;;;;12.22;34.43;100869.41;5038754;28;20075;-71
2023/04/28 00:57:51;;;;;;;6.55;3.72;;;;;;;12.23;34.50;100862.03;5037744;28;20049;-70
2023/04/28 01:00:19;;;;;;;4.82;3.22;;;;;;;12.22;34.31;100863.03;5032917;28;20489;-71
2023/04/28 01:02:47;;;;;;;6.47;3.53;;;;;;;12.22;34.45;100863.03;5038761;28;20065;-70
2023/04/28 01:05:16;;;;;;;4.90;3.47;;;;;;;12.19;34.32;100858.72;5035543;28;20121;-70
2023/04/28 01:07:44;;;;;;;6.28;4.18;;;;;;;12.18;34.88;100861.63;5035358;28;20107;-70
2023/04/28 01:10:12;;;;;;;6.10;4.30;;;;;;;12.19;35.03;100866.09;5041649;28;20041;-70
2023/04/28 01:12:40;;;;;;;5.20;4.05;;;;;;;12.17;35.48;100857.13;5042036;28;20049;-71
2023/04/28 01:15:16;;;;;;;5.22;3.83;;;;;;;12.21;36.70;100864.09;5038144;28;21451;-70
2023/04/28 01:17:45;;;;;;;6.32;3.95;;;;;;;12.15;35.21;100850.91;5055527;28;20079;-69
2023/04/28 01:20:13;;;;;;;5.30;3.65;;;;;;;12.13;35.73;100856.53;5052852;28;20076;-69
2023/04/28 01:22:41;;;;;;;6.00;4.20;;;;;;;12.11;35.79;100855.84;5040648;28;20057;-69
2023/04/28 01:25:11;;;;;;;6.13;4.30;;;;;;;12.10;36.32;100856.84;5043074;28;20483;-69
2023/04/28 01:27:38;;;;;;;6.35;4.35;;;;;;;12.05;36.63;100860.00;5042474;28;20135;-69
2023/04/28 01:30:08;;;;;;;7.10;4.35;;;;;;;12.04;36.61;100861.06;5044040;28;20049;-69
2023/04/28 01:32:36;;;;;;;6.55;4.15;;;;;;;12.01;37.01;100854.97;5058629;28;20191;-69
2023/04/28 01:35:04;;;;;;;7.63;4.75;;;;;;;11.99;36.67;100857.84;5042318;28;20073;-69
2023/04/28 01:37:34;;;;;;;6.28;4.28;;;;;;;11.97;36.94;100859.88;5054961;28;20073;-68
2023/04/28 01:40:02;;;;;;;7.80;4.78;;;;;;;11.97;37.03;100856.25;5034747;28;20041;-68
2023/04/28 01:42:32;;;;;;;6.25;4.30;;;;;;;11.95;37.32;100855.56;5054861;28;20811;-69
2023/04/28 01:45:02;;;;;;;6.32;4.20;;;;;;;11.91;37.76;100854.97;5034610;28;20052;-69
2023/04/28 01:47:30;;;;;;;7.45;4.55;;;;;;;11.90;37.67;100844.13;5042775;28;20056;-69
2023/04/28 01:49:57;;;;;;;7.25;4.47;;;;;;;11.88;37.46;100852.53;5046959;28;20056;-69
2023/04/28 01:52:26;;;;;;;6.95;4.15;;;;;;;11.86;37.95;100848.19;5046890;28;20041;-69
2023/04/28 01:54:54;;;;;;;5.80;4.18;;;;;;;11.85;37.79;100851.94;5040439;28;20603;-69
2023/04/28 01:57:22;;;;;;;6.70;4.60;;;;;;;11.83;38.43;100845.72;5052122;28;20091;-69
2023/04/28 01:59:52;;;;;;;7.05;4.78;;;;;;;11.83;38.31;100842.97;5041200;28;20114;-69
2023/04/28 02:02:21;;;;;;;7.05;4.30;;;;;;;11.79;38.64;100838.81;5052990;28;20053;-69
2023/04/28 02:04:49;;;;;;;5.80;4.03;;;;;;;11.77;38.31;100829.84;5042435;28;20053;-69
2023/04/28 02:07:17;;;;;;;5.72;4.25;;;;;;;11.75;38.99;100829.97;5043673;28;20048;-68
2023/04/28 02:09:45;;;;;;;5.95;4.07;;;;;;;11.73;39.03;100832.00;5040784;28;20483;-68
2023/04/28 02:12:13;;;;;;;7.05;4.22;;;;;;;11.71;38.59;100831.28;5030300;28;20061;-68
2023/04/28 02:14:41;;;;;;;5.50;4.32;;;;;;;11.68;39.16;100826.94;5034082;28;20482;-69
2023/04/28 02:17:10;;;;;;;5.45;3.92;;;;;;;11.67;38.86;100829.81;5040858;28;21281;-68
2023/04/28 02:19:38;;;;;;;6.35;3.88;;;;;;;11.63;39.25;100825.66;5036618;28;20044;-68
2023/04/28 02:22:06;;;;;;;7.60;4.18;;;;;;;11.61;39.02;100813.97;5052138;28;20041;-68
2023/04/28 02:24:36;;;;;;;5.03;3.75;;;;;;;11.58;39.38;100815.06;5037831;28;20524;-68
2023/04/28 02:27:04;;;;;;;6.60;4.15;;;;;;;11.54;39.15;100819.13;5034590;28;20087;-67
2023/04/28 02:29:32;;;;;;;5.40;3.78;;;;;;;11.52;39.51;100820.25;5039096;28;20440;-67
2023/04/28 02:31:59;;;;;;;6.47;4.18;;;;;;;11.50;39.61;100820.38;5037830;28;20037;-67
2023/04/28 02:34:29;;;;;;;7.22;4.50;;;;;;;11.50;39.52;100825.00;5040059;28;20519;-68
2023/04/28 02:36:57;;;;;;;5.72;3.75;;;;;;;11.46;39.25;100829.91;5038247;28;20049;-68
2023/04/28 02:39:25;;;;;;;7.28;4.10;;;;;;;11.44;39.84;100834.66;5045904;28;20037;-68
2023/04/28 02:41:56;;;;;;;7.20;3.63;;;;;;;11.41;40.06;100826.72;5033251;28;20047;-67
2023/04/28 02:44:24;;;;;;;5.75;3.95;;;;;;;11.41;39.57;100826.72;5043054;28;20044;-69
2023/04/28 02:46:52;;;;;;;6.47;4.00;;;;;;;11.39;40.04;100825.97;5041195;28;20049;-68
2023/04/28 02:49:20;;;;;;;6.07;4.20;;;;;;;11.38;39.80;100823.41;5036933;28;20059;-68
2023/04/28 02:51:49;;;;;;;5.38;3.97;;;;;;;11.38;39.85;100823.41;5038178;28;20132;-67
2023/04/28 02:54:26;;;;;;;6.82;3.83;;;;;;;11.35;40.28;100819.94;5037277;28;20039;-68
2023/04/28 02:56:55;;;;;;;4.97;3.78;;;;;;;11.33;39.83;100813.72;5038710;28;20048;-67
2023/04/28 02:59:23;;;;;;;6.20;3.58;;;;;;;11.31;40.36;100815.72;5043117;28;20048;-67
2023/04/28 03:01:51;;;;;;;7.47;3.85;;;;;;;11.29;40.18;100817.75;5037008;28;20072;-67
2023/04/28 03:04:19;;;;;;;5.05;3.90;;;;;;;11.27;40.59;100822.50;5041166;28;20611;-68
2023/04/28 03:06:50;;;;;;;6.57;3.83;;;;;;;11.27;40.56;100816.16;5039229;28;20079;-68
2023/04/28 03:09:18;;;;;;;5.20;3.63;;;;;;;11.23;40.16;100807.34;5044890;28;20049;-68
2023/04/28 03:11:46;;;;;;;6.82;3.90;;;;;;;11.23;40.42;100803.72;5045796;28;20036;-68
2023/04/28 03:14:14;;;;;;;6.68;4.28;;;;;;;11.20;40.21;100802.16;5038456;28;20053;-68
2023/04/28 03:16:43;;;;;;;5.38;3.65;;;;;;;11.20;40.39;100795.81;5056894;28;20052;-68
2023/04/28 03:19:11;;;;;;;6.43;3.90;;;;;;;11.18;40.77;100790.47;5038274;28;20135;-68
2023/04/28 03:21:39;;;;;;;6.97;4.18;;;;;;;11.16;40.52;100789.72;5034318;28;20043;-68
2023/04/28 03:24:08;;;;;;;5.35;4.03;;;;;;;11.16;40.75;100788.88;5029298;28;20136;-67
2023/04/28 03:26:36;;;;;;;6.35;3.95;;;;;;;11.13;40.76;100784.56;5036171;28;20446;-69
2023/04/28 03:29:04;;;;;;;6.13;3.88;;;;;;;11.12;41.28;100788.28;5037190;28;20045;-68
2023/04/28 03:31:32;;;;;;;5.97;4.10;;;;;;;11.11;41.05;100786.56;5035247;28;20135;-68
2023/04/28 03:34:02;;;;;;;5.63;3.88;;;;;;;11.10;41.36;100781.22;5039923;28;20072;-69
2023/04/28 03:36:30;;;;;;;7.00;4.00;;;;;;;11.08;41.13;100786.81;5035552;28;20044;-68
2023/04/28 03:39:08;;;;;;;6.22;4.10;;;;;;;11.08;41.64;100772.25;5039197;28;20114;-67
2023/04/28 03:41:36;;;;;;;7.18;4.10;;;;;;;11.05;41.46;100767.09;5033380;28;20049;-69
2023/04/28 03:44:33;;;;;;;5.63;4.05;;;;;;;11.03;41.20;100767.22;5032179;28;20459;-68
2023/04/28 03:47:01;;;;;;;6.68;4.10;;;;;;;11.02;41.42;100754.53;5039604;28;20049;-68
2023/04/28 03:49:30;;;;;;;7.85;4.20;;;;;;;10.99;41.42;100747.44;5043776;28;20048;-69
2023/04/28 03:51:58;;;;;;;8.13;4.88;;;;;;;10.99;41.50;100741.97;5034637;28;20053;-69
2023/04/28 03:54:27;;;;;;;6.40;4.80;;;;;;;10.98;41.52;100737.50;5032270;28;20087;-68
2023/04/28 03:56:55;;;;;;;6.55;4.50;;;;;;;10.96;41.60;100724.97;5033879;28;20427;-67
2023/04/28 03:59:23;;;;;;;6.85;4.05;;;;;;;10.95;41.81;100725.97;5039769;28;20403;-67
2023/04/28 04:01:51;;;;;;;6.55;4.03;;;;;;;10.94;41.77;100719.63;5036179;28;20836;-68
2023/04/28 04:04:19;;;;;;;6.68;4.13;;;;;;;10.93;41.46;100715.16;5030267;28;20120;-68
2023/04/28 04:06:48;;;;;;;7.07;4.10;;;;;;;10.91;41.60;100714.44;5046714;28;20102;-68
2023/04/28 04:09:15;;;;;;;7.13;4.60;;;;;;;10.90;41.46;100712.69;5056768;28;20563;-67
2023/04/28 04:11:45;;;;;;;6.13;3.95;;;;;;;10.91;42.01;100708.06;5029206;28;20126;-68
2023/04/28 04:14:13;;;;;;;6.65;4.22;;;;;;;10.87;41.70;100699.28;5050801;28;20045;-68
2023/04/28 04:16:41;;;;;;;7.55;4.50;;;;;;;10.86;41.88;100705.78;5036137;28;20055;-68
2023/04/28 04:19:09;;;;;;;8.02;4.40;;;;;;;10.84;42.21;100693.22;5040000;28;20055;-68
2023/04/28 04:21:41;;;;;;;7.00;4.43;;;;;;;10.82;42.14;100692.50;5036320;28;20607;-68
2023/04/28 04:24:09;;;;;;;6.25;4.35;;;;;;;10.84;42.02;100704.19;5034102;28;20170;-68
2023/04/28 04:26:37;;;;;;;7.88;4.80;;;;;;;10.83;42.37;100707.91;5055376;28;20415;-68
2023/04/28 04:29:22;;;;;;;6.50;4.22;;;;;;;10.81;42.13;100699.84;5055650;28;20179;-68
2023/04/28 04:31:51;;;;;;;7.05;4.25;;;;;;;10.81;42.24;100713.53;5039632;28;20041;-67
2023/04/28 04:34:19;;;;;;;6.07;4.07;;;;;;;10.82;42.52;100711.66;5038454;28;20447;-67
2023/04/28 04:36:47;;;;;;;6.35;4.28;;;;;;;10.82;42.31;100708.91;5031748;28;20443;-67
2023/04/28 04:39:15;;;;;;;6.28;4.43;;;;;;;10.81;42.53;100708.03;5041490;28;20068;-67
2023/04/28 04:41:43;;;;;;;6.45;4.07;;;;;;;10.80;42.69;100714.56;5037113;28;20472;-67
2023/04/28 04:44:35;;;;;;;6.65;3.90;;;;;;;10.80;42.49;100705.47;5030610;28;20041;-68
2023/04/28 04:47:05;;;;;;;5.28;3.95;;;;;;;10.80;42.55;100697.25;5034653;28;20073;-68
2023/04/28 04:49:34;;;;;;;6.15;4.43;;;;;;;10.80;42.66;100687.19;5037325;28;20154;-68
2023/04/28 04:52:02;;;;;;;5.22;3.95;;;;;;;10.81;42.73;100688.06;5039141;28;20052;-68
2023/04/28 04:54:31;;;;;;;6.35;4.18;;;;;;;10.80;42.87;100684.44;5034580;28;20132;-69
2023/04/28 04:56:59;;;;;;;6.68;4.15;;;;;;;10.82;42.80;100684.28;5034681;28;20064;-68
2023/04/28 04:59:48;;;;;;;5.95;4.07;;;;;;;10.82;43.45;100690.63;5016924;28;20159;-68
2023/04/28 05:02:18;;;;;;;7.03;4.55;;;;;;;10.80;43.05;100692.66;5053534;28;20034;-67
2023/04/28 05:04:46;;;;;;;6.88;4.63;;;;;;;10.82;43.19;100706.19;5037721;28;20044;-68
2023/04/28 05:07:15;;;;;;;5.32;3.80;;;;;;;10.82;43.06;100715.25;5037920;28;20049;-69
2023/04/28 05:09:43;;;;;;;5.20;3.75;;;;;;;10.84;43.05;100712.38;5053270;28;20053;-69
2023/04/28 05:12:11;;;;;;;5.35;4.15;;;;;;;10.84;43.32;100712.38;5037750;28;20055;-68
2023/04/28 05:14:39;;;;;;;5.78;3.67;;;;;;;10.86;43.56;100710.38;5033007;28;20044;-68
2023/04/28 05:17:08;;;;;;;6.35;4.38;;;;;;;10.89;43.49;100704.63;5036803;28;20077;-69
2023/04/28 05:19:38;;;;;;;5.63;3.75;;;;;;;10.89;43.39;100696.44;5039782;28;20041;-68
2023/04/28 05:22:07;;;;;;;5.28;3.65;;;;;;;10.91;43.34;100688.91;5048360;28;20098;-68
2023/04/28 05:24:37;;;;;;;5.35;3.60;;;;;;;10.91;43.35;100692.53;5035740;28;20049;-67
2023/04/28 05:27:04;;;;;;;5.70;4.05;;;;;;;10.92;43.27;100699.72;5037721;28;20407;-67
2023/04/28 05:29:34;;;;;;;5.28;4.47;;;;;;;10.93;43.79;100703.34;5034176;28;20046;-66
2023/04/28 05:32:02;;;;;;;6.10;3.78;;;;;;;10.95;43.37;100693.13;5037967;28;20151;-67
2023/04/28 05:34:32;;;;;;;6.38;4.30;;;;;;;10.97;43.96;100693.84;5037457;28;20045;-67
2023/04/28 05:37:00;;;;;;;6.47;3.50;;;;;;;10.97;43.78;100694.72;5026589;28;20679;-67
2023/04/28 05:39:30;;;;;;;6.75;3.97;;;;;;;10.98;43.65;100699.16;5042144;28;20129;-68
2023/04/28 05:42:03;;;;;;;7.13;4.18;;;;;;;10.98;43.49;100688.22;5047371;28;20056;-69
2023/04/28 05:44:31;;;;;;;5.50;4.10;;;;;;;10.99;43.49;100681.72;5043250;28;20471;-68
2023/04/28 05:47:00;;;;;;;7.53;4.30;;;;;;;11.01;43.79;100684.31;5032397;28;20059;-69
2023/04/28 05:49:28;;;;;;;7.50;4.63;;;;;;;11.02;43.30;100676.97;5032126;28;20174;-69
2023/04/28 05:52:03;;;;;;;5.60;3.92;;;;;;;11.04;43.89;100680.44;5023941;28;20556;-69
2023/04/28 05:54:33;;;;;;;6.60;4.40;;;;;;;11.02;43.79;100674.25;5035444;28;20056;-69
2023/04/28 05:57:01;;;;;;;5.75;4.13;;;;;;;11.02;43.90;100675.09;5033869;28;20057;-70
2023/04/28 05:59:30;;;;;;;7.50;4.50;;;;;;;11.04;43.74;100667.63;5039588;28;20041;-69
2023/04/28 06:01:58;;;;;;;5.63;3.88;;;;;;;11.05;43.61;100668.50;5028387;28;20049;-69
2023/04/28 06:04:26;;;;;;;7.07;3.95;;;;;;;11.05;43.68;100669.38;5042326;28;20051;-69
2023/04/28 06:06:54;;;;;;;6.22;3.72;;;;;;;11.07;43.64;100674.66;5032463;28;20732;-69
2023/04/28 06:09:24;;;;;;;7.32;4.15;;;;;;;11.08;43.78;100666.31;5045051;28;20076;-70
2023/04/28 06:11:53;;;;;;;5.82;3.83;;;;;;;11.08;44.13;100652.63;5039159;28;20087;-70
2023/04/28 06:14:22;;;;;;;5.85;4.22;;;;;;;11.11;43.75;100646.00;5040576;28;20072;-70
2023/04/28 06:16:51;;;;;;;5.45;3.78;;;;;;;11.12;43.90;100654.09;5030945;28;20739;-68
2023/04/28 06:19:18;;;;;;;5.88;3.90;;;;;;;11.11;43.83;100657.84;5042050;28;20136;-69
2023/04/28 06:21:49;;;;;;;6.18;3.80;;;;;;;11.14;43.85;100656.69;5045201;28;20045;-69
2023/04/28 06:24:16;;;;;;;5.45;3.47;;;;;;;11.16;44.08;100651.91;5037112;28;20071;-69
2023/04/28 06:26:47;;;;;;;6.05;4.00;;;;;;;11.18;44.43;100647.16;5050612;28;20045;-69
2023/04/28 06:29:15;;;;;;;6.50;3.80;;;;;;;11.19;43.95;100655.25;5040792;28;20041;-70
2023/04/28 06:31:43;;;;;;;5.25;3.53;;;;;;;11.22;44.29;100662.31;5037423;28;20507;-71
2023/04/28 06:34:11;;;;;;;5.53;3.47;;;;;;;11.24;44.28;100658.41;5054029;28;20496;-69
2023/04/28 06:36:39;;;;;;;6.47;3.70;;;;;;;11.27;44.46;100677.31;5045160;28;20041;-68
2023/04/28 06:39:08;;;;;;;6.18;3.85;;;;;;;11.30;44.39;100667.94;5061485;28;20583;-69
2023/04/28 06:41:35;;;;;;;7.35;3.70;;;;;;;11.32;44.42;100665.91;5037591;28;20128;-70
2023/04/28 06:44:06;;;;;;;5.32;3.42;;;;;;;11.36;44.46;100670.97;5064153;28;20143;-71
2023/04/28 06:46:36;;;;;;;6.25;3.53;;;;;;;11.39;44.73;100678.00;5042680;28;20063;-69
2023/04/28 06:49:04;;;;;;;6.28;3.80;;;;;;;11.39;43.99;100669.78;5034848;28;20049;-70
2023/04/28 06:51:32;;;;;;;5.93;3.67;;;;;;;11.40;44.45;100663.31;5038457;28;20127;-67
2023/04/28 06:54:01;;;;;;;5.47;3.55;;;;;;;11.43;44.58;100656.69;5040220;28;20103;-68
2023/04/28 06:56:29;;;;;;;5.35;3.70;;;;;;;11.44;44.40;100663.88;5026799;28;20095;-69
2023/04/28 06:58:57;;;;;;;5.03;3.33;;;;;;;11.46;44.63;100661.88;5033027;28;20043;-68
2023/04/28 07:01:27;;;;;;;5.93;3.63;;;;;;;11.47;44.14;100666.34;5047183;28;20136;-68
2023/04/28 07:03:55;;;;;;;5.22;3.50;;;;;;;11.47;44.24;100669.09;5047573;28;20500;-69
2023/04/28 07:06:23;;;;;;;4.93;3.22;;;;;;;11.48;44.36;100671.66;5046415;28;20061;-68
2023/04/28 07:08:51;;;;;;;4.50;3.28;;;;;;;11.51;44.44;100676.00;5033737;28;20045;-68
2023/04/28 07:11:19;;;;;;;5.53;3.92;;;;;;;11.51;44.33;100679.59;5033946;28;20049;-71
2023/04/28 07:13:50;;;;;;;6.40;3.42;;;;;;;11.52;44.14;100681.34;5039570;28;20034;-71
2023/04/28 07:16:18;;;;;;;5.70;3.67;;;;;;;11.54;44.42;100675.72;5035328;28;20143;-71
2023/04/28 07:18:47;;;;;;;5.93;4.20;;;;;;;11.56;44.63;100670.94;5035414;28;20053;-71
2023/04/28 07:21:15;;;;;;;5.75;3.60;;;;;;;11.54;44.62;100668.38;5034503;28;20048;-71
2023/04/28 07:23:44;;;;;;;5.18;4.07;;;;;;;11.57;44.58;100667.19;5038184;28;20029;-70
2023/04/28 07:26:15;;;;;;;5.63;4.15;;;;;;;11.58;44.71;100678.00;5040131;28;20068;-71
2023/04/28 07:28:44;;;;;;;5.05;3.75;;;;;;;11.61;44.94;100668.69;5036572;28;20045;-71
2023/04/28 07:31:12;;;;;;;5.97;3.75;;;;;;;11.61;44.51;100666.81;5038899;28;20060;-71
2023/04/28 07:33:40;;;;;;;5.60;3.88;;;;;;;11.62;44.90;100663.06;5039866;28;20037;-73
2023/04/28 07:36:09;;;;;;;5.82;3.88;;;;;;;11.66;44.65;100660.88;5037593;28;20061;-72
2023/04/28 07:38:37;;;;;;;7.10;4.03;;;;;;;11.66;44.92;100669.09;5038631;28;20048;-73
2023/04/28 07:41:05;;;;;;;7.20;3.97;;;;;;;11.69;44.97;100686.13;5036114;28;20049;-72
2023/04/28 07:43:37;;;;;;;6.65;4.70;;;;;;;11.67;44.87;100674.44;5039145;28;20428;-72
2023/04/28 07:46:07;;;;;;;7.55;4.28;;;;;;;11.73;45.13;100682.06;5038983;28;20055;-72
2023/04/28 07:48:35;;;;;;;6.55;4.35;;;;;;;11.74;44.91;100678.31;5040468;28;20045;-72
2023/04/28 07:51:03;;;;;;;6.60;4.30;;;;;;;11.75;44.83;100679.19;5035195;28;20152;-72
2023/04/28 07:53:34;;;;;;;5.80;3.92;;;;;;;11.79;45.60;100675.16;5039840;28;20041;-73
2023/04/28 07:56:02;;;;;;;7.15;4.40;;;;;;;11.80;45.13;100678.75;5033240;28;20059;-72
2023/04/28 07:58:29;;;;;;;6.55;4.20;;;;;;;11.82;45.26;100677.59;5036509;28;20052;-73
2023/04/28 08:00:58;;;;;;;6.30;4.18;;;;;;;11.85;45.27;100674.56;5035986;28;20064;-73
2023/04/28 08:03:25;;;;;;;6.03;4.10;;;;;;;11.88;45.66;100676.16;5033984;28;20040;-73
2023/04/28 08:05:54;;;;;;;5.15;4.20;;;;;;;11.89;45.48;100672.38;5034901;28;20044;-73
2023/04/28 08:08:22;;;;;;;7.13;4.35;;;;;;;11.91;45.67;100670.34;5038884;28;20049;-71
2023/04/28 08:10:51;;;;;;;6.38;4.00;;;;;;;11.94;45.50;100662.69;5037022;28;20586;-73
2023/04/28 08:13:19;;;;;;;6.93;4.53;;;;;;;11.94;45.57;100665.44;5068333;23;20045;-83
2023/04/28 08:15:48;;;;;;;5.90;4.13;;;;;;;11.95;46.03;100669.06;5064522;28;20040;-84
2023/04/28 08:18:16;;;;;;;6.60;4.30;;;;;;;11.96;45.95;100663.44;5060973;28;20484;-83
2023/04/28 08:20:44;;;;;;;7.40;3.97;;;;;;;11.98;45.61;100663.25;5075064;23;20045;-82
2023/04/28 08:23:15;;;;;;;6.90;4.57;;;;;;;11.98;46.10;100658.63;5060798;28;20535;-83
2023/04/28 08:25:43;;;;;;;6.30;4.03;;;;;;;12.01;45.67;100665.72;5064260;28;20068;-82
2023/04/28 08:28:12;;;;;;;6.38;3.90;;;;;;;12.06;45.91;100663.38;5079369;28;20048;-83
2023/04/28 08:30:40;;;;;;;7.05;4.72;;;;;;;12.08;45.97;100666.84;5066930;28;20491;-82
2023/04/28 08:33:08;;;;;;;6.50;4.25;;;;;;;12.10;45.68;100660.19;5048903;28;20047;-83
2023/04/28 08:35:36;;;;;;;6.45;4.15;;;;;;;12.13;45.87;100669.16;5052115;28;20132;-83
2023/04/28 08:38:05;;;;;;;5.80;4.35;;;;;;;12.16;46.19;100663.34;5058767;28;20135;-83
2023/04/28 08:40:33;;;;;;;6.60;4.40;;;;;;;12.16;46.35;100658.72;5061357;28;20635;-80
2023/04/28 08:43:01;;;;;;;6.63;4.10;;;;;;;12.21;46.06;100661.91;5052855;28;20073;-79
2023/04/28 08:45:32;;;;;;;7.80;4.63;;;;;;;12.25;46.24;100663.31;5058574;28;20092;-80
2023/04/28 08:48:03;;;;;;;7.55;4.43;;;;;;;12.27;45.86;100665.94;5044594;28;20075;-79
2023/04/28 08:50:33;;;;;;;6.05;4.10;;;;;;;12.28;46.29;100674.00;5048110;28;20077;-79
2023/04/28 08:53:04;;;;;;;5.68;4.47;;;;;;;12.33;46.09;100687.28;5052810;28;20492;-81
2023/04/28 08:55:33;;;;;;;5.60;4.15;;;;;;;12.31;46.06;100679.19;5065904;28;20191;-80
2023/04/28 08:58:02;;;;;;;6.10;4.22;;;;;;;12.36;45.80;100676.88;5052453;28;20044;-80
2023/04/28 09:00:31;;;;;;;6.32;4.00;;;;;;;12.37;46.29;100678.59;5047161;28;20644;-80
2023/04/28 09:02:59;;;;;;;6.15;4.40;;;;;;;12.40;45.81;100680.16;5051156;28;20049;-80
2023/04/28 09:05:27;;;;;;;5.53;4.07;;;;;;;12.42;45.82;100689.97;5060037;28;20147;-80
2023/04/28 09:07:55;;;;;;;6.40;4.30;;;;;;;12.42;46.02;100676.25;5050953;28;20041;-80
2023/04/28 09:10:26;;;;;;;7.28;4.93;;;;;;;12.46;46.18;100682.28;5057022;28;20411;-79
2023/04/28 09:12:56;;;;;;;6.93;4.63;;;;;;;12.47;45.87;100673.91;5058006;28;20045;-80
2023/04/28 09:15:29;;;;;;;6.90;4.03;;;;;;;12.49;46.68;100666.41;5051807;28;20029;-79
2023/04/28 09:18:02;;;;;;;6.88;4.47;;;;;;;12.49;46.32;100665.53;5049954;28;20041;-79
2023/04/28 09:20:32;;;;;;;6.85;4.82;;;;;;;12.50;46.04;100664.53;5049341;28;20562;-79
2023/04/28 09:23:19;;;;;;;7.90;4.82;;;;;;;12.51;47.13;100669.00;5052816;28;20045;-80
2023/04/28 09:25:59;;;;;;;7.93;4.47;;;;;;;12.54;47.50;100665.09;5052173;28;20045;-79
2023/04/28 09:28:28;;;;;;;6.60;4.88;;;;;;;12.52;46.48;100667.13;5057245;28;20048;-79
2023/04/28 09:30:56;;;;;;;8.15;5.45;;;;;;;12.57;46.75;100662.03;5059627;28;20052;-81
2023/04/28 09:33:26;;;;;;;7.90;4.90;;;;;;;12.60;46.77;100662.59;5076507;28;20058;-79
2023/04/28 09:35:54;;;;;;;7.07;4.60;;;;;;;12.61;46.68;100656.09;5073123;28;20047;-80
2023/04/28 09:38:23;;;;;;;6.93;4.68;;;;;;;12.65;47.06;100657.53;5060049;28;20097;-79
2023/04/28 09:40:56;;;;;;;6.63;4.65;;;;;;;12.70;47.73;100663.44;5056558;28;20130;-78
2023/04/28 09:43:30;;;;;;;7.45;4.78;;;;;;;12.72;47.32;100661.41;5058149;28;20103;-79
2023/04/28 09:45:59;;;;;;;7.70;5.13;;;;;;;12.74;46.65;100662.13;5053655;28;20148;-79
2023/04/28 09:48:33;;;;;;;8.30;5.05;;;;;;;12.79;47.64;100665.25;5048023;28;20440;-79
2023/04/28 09:51:04;;;;;;;7.30;4.68;;;;;;;12.80;47.05;100663.38;5059974;28;20055;-81
2023/04/28 09:53:33;;;;;;;6.80;4.70;;;;;;;12.81;47.23;100663.22;5054289;28;20048;-81
2023/04/28 09:56:03;;;;;;;7.75;4.78;;;;;;;12.84;47.35;100651.06;5022887;28;20458;-80
2023/04/28 09:58:34;;;;;;;6.10;4.28;;;;;;;12.88;47.10;100663.47;5051781;28;20075;-79
2023/04/28 10:01:02;;;;;;;7.45;5.03;;;;;;;12.91;46.98;100660.41;5068448;28;20710;-80
2023/04/28 10:03:32;;;;;;;7.22;4.90;;;;;;;12.94;47.39;100657.38;5050861;28;20053;-80
2023/04/28 10:06:03;;;;;;;8.38;5.25;;;;;;;12.95;47.57;100659.13;5057647;28;20045;-81
2023/04/28 10:08:31;;;;;;;6.38;4.53;;;;;;;12.95;47.23;100656.38;5053360;28;20048;-81
2023/04/28 10:10:59;;;;;;;7.13;4.70;;;;;;;12.97;47.17;100664.44;5053360;28;20059;-80
2023/04/28 10:13:28;;;;;;;6.53;4.90;;;;;;;12.97;47.13;100664.44;5053644;28;20110;-79
2023/04/28 10:15:57;;;;;;;5.97;4.95;;;;;;;12.99;47.54;100665.13;5053178;28;20140;-81
2023/04/28 10:18:25;;;;;;;7.38;5.43;;;;;;;12.97;47.52;100657.03;5057159;28;20117;-80
2023/04/28 10:20:58;;;;;;;7.95;5.57;;;;;;;13.01;48.20;100655.75;5067314;28;20049;-82
2023/04/28 10:23:53;;;;;;;8.15;5.00;;;;;;;12.98;48.98;100661.53;5059176;28;20699;-83
2023/04/28 10:26:24;;;;;;;7.75;5.35;;;;;;;12.98;47.68;100653.28;5053648;28;20044;-83
2023/04/28 10:28:52;;;;;;;7.35;4.97;;;;;;;13.00;47.85;100659.50;5061894;28;20067;-83
2023/04/28 10:31:21;;;;;;;7.68;5.07;;;;;;;13.02;48.20;100656.59;5056227;28;20049;-84
2023/04/28 10:33:50;;;;;;;8.13;5.25;;;;;;;13.03;48.49;100667.44;5063168;28;20113;-82
2023/04/28 10:36:51;;;;;;;7.47;5.82;;;;;;;13.05;49.81;100667.25;5053369;28;20049;-84
2023/04/28 10:39:19;;;;;;;7.90;5.25;;;;;;;13.03;48.69;100659.19;5060696;28;20057;-83
2023/04/28 10:41:48;;;;;;;7.78;5.40;;;;;;;13.06;48.61;100658.88;5053845;28;20044;-82
2023/04/28 10:44:42;;;;;;;7.13;5.25;;;;;;;13.06;50.37;100660.75;5054324;28;20065;-82
2023/04/28 10:47:11;;;;;;;7.80;5.40;;;;;;;13.06;48.95;100663.50;5057815;28;20084;-84
2023/04/28 10:50:05;;;;;;;8.77;5.68;;;;;;;13.08;50.54;100664.22;5080835;28;20064;-84
2023/04/28 10:52:50;;;;;;;7.03;5.32;;;;;;;13.07;50.30;100657.00;5059443;28;20053;-84
2023/04/28 10:55:31;;;;;;;7.65;5.97;;;;;;;13.10;50.31;100657.56;5062528;28;20045;-81
2023/04/28 10:58:31;;;;;;;6.88;5.65;;;;;;;13.09;50.84;100661.31;5061021;28;20053;-82
2023/04/28 11:01:25;;;;;;;8.05;5.47;;;;;;;13.09;50.93;100654.97;5071101;28;20049;-82
2023/04/28 11:03:58;;;;;;;6.88;5.45;;;;;;;13.11;49.70;100658.41;5060145;28;20045;-82
2023/04/28 11:06:29;;;;;;;7.00;5.80;;;;;;;13.14;49.96;100652.59;5067356;28;20053;-82
2023/04/28 11:09:01;;;;;;;7.72;6.03;;;;;;;13.18;50.29;100656.78;5057262;28;20059;-82
2023/04/28 11:11:29;;;;;;;8.70;5.70;;;;;;;13.19;49.91;100656.63;5050873;28;20061;-82
2023/04/28 11:14:31;;;;;;;7.13;5.45;;;;;;;13.17;51.98;100649.53;5057507;28;20045;-82
2023/04/28 11:17:01;;;;;;;7.68;5.55;;;;;;;13.21;50.37;100642.69;5048252;28;20270;-80
2023/04/28 11:19:31;;;;;;;7.05;5.43;;;;;;;13.30;50.65;100647.25;5053087;28;20052;-80
2023/04/28 11:22:01;;;;;;;7.00;5.55;;;;;;;13.34;50.29;100645.06;5054026;28;20045;-80
2023/04/28 11:24:31;;;;;;;8.60;5.63;;;;;;;13.36;50.55;100643.03;5051471;28;20051;-79
2023/04/28 11:27:00;;;;;;;7.20;5.57;;;;;;;13.39;50.53;100642.69;5053742;28;20120;-81
2023/04/28 11:29:32;;;;;;;8.10;5.63;;;;;;;13.42;51.27;100646.00;5050808;28;20045;-82
2023/04/28 11:32:00;;;;;;;6.93;5.28;;;;;;;13.43;50.76;100641.38;5051857;28;20045;-80
2023/04/28 11:34:28;;;;;;;5.72;4.57;;;;;;;13.45;51.02;100642.06;5060961;28;20045;-82
2023/04/28 11:36:56;;;;;;;7.32;5.20;;;;;;;13.48;51.11;100642.63;5047996;28;20049;-83